createdAt,value
2023-07-18T05:59:03.013Z,16.95
2023-07-18T06:01:31.207Z,17.06
2023-07-18T06:03:59.060Z,17.22
2023-07-18T06:06:26.681Z,17.38
2023-07-18T06:08:54.017Z,17.49
2023-07-18T06:11:21.352Z,17.81
2023-07-18T06:13:50.080Z,18.03
2023-07-18T06:16:17.890Z,18.26
2023-07-18T08:17:26.837Z,18.66
2023-07-18T08:19:54.368Z,18.77
2023-07-18T08:22:22.405Z,18.88
2023-07-18T08:24:49.776Z,18.94
2023-07-18T08:27:17.100Z,18.96
2023-07-18T08:29:45.263Z,19.03
2023-07-18T08:32:12.722Z,19.07
2023-07-18T08:34:40.484Z,18.98
2023-07-18T08:37:12.985Z,18.83
2023-07-18T08:39:40.426Z,18.88
2023-07-18T08:42:08.268Z,18.82
2023-07-18T08:44:39.319Z,18.90
2023-07-18T08:47:08.174Z,18.75
2023-07-18T08:49:37.334Z,18.53
2023-07-18T08:52:06.803Z,18.69
2023-07-18T08:54:35.959Z,18.71
2023-07-18T08:57:05.167Z,18.68
2023-07-18T08:59:32.868Z,18.71
2023-07-18T09:02:00.182Z,18.82
2023-07-18T09:04:27.653Z,19.01
2023-07-18T09:07:02.233Z,19.00
2023-07-18T09:09:29.807Z,18.94
2023-07-18T09:12:04.796Z,18.90
2023-07-18T09:14:35.236Z,18.77
2023-07-18T11:08:52.034Z,14.69
2023-07-18T11:11:20.030Z,14.67
2023-07-18T11:13:47.405Z,14.65
2023-07-18T11:16:19.123Z,14.61
2023-07-18T11:18:47.822Z,14.58
2023-07-18T11:21:18.434Z,14.58
2023-07-18T11:23:46.677Z,14.52
2023-07-18T11:26:19.557Z,14.46
2023-07-18T11:28:51.223Z,14.38
2023-07-18T11:31:40.185Z,14.38
2023-07-18T11:34:10.708Z,14.37
2023-07-18T11:36:38.619Z,14.36
2023-07-18T11:39:23.596Z,14.41
2023-07-18T11:41:53.668Z,14.54
2023-07-18T11:44:26.313Z,14.63
2023-07-18T11:46:54.685Z,14.75
2023-07-18T11:49:35.451Z,14.87
2023-07-18T11:52:06.886Z,15.07
2023-07-18T11:54:37.465Z,15.14
2023-07-18T11:57:07.692Z,15.83
2023-07-18T11:59:35.336Z,16.17
2023-07-18T12:02:03.287Z,16.49
2023-07-18T12:04:30.646Z,16.79
2023-07-18T12:06:59.082Z,16.88
2023-07-18T12:09:27.274Z,16.99
2023-07-18T12:11:55.735Z,16.92
2023-07-18T12:14:23.407Z,16.89
2023-07-18T12:16:50.802Z,16.63
2023-07-18T12:19:20.958Z,16.57
2023-07-18T12:21:50.196Z,16.60
2023-07-18T12:24:19.695Z,16.88
2023-07-18T12:26:47.125Z,17.42
2023-07-18T12:29:16.478Z,17.85
2023-07-18T12:31:50.704Z,18.15
2023-07-18T12:34:18.204Z,18.13
2023-07-18T12:36:46.385Z,17.67
2023-07-18T12:39:17.034Z,17.39
2023-07-18T12:41:44.615Z,17.34
2023-07-18T12:44:26.456Z,17.36
2023-07-18T12:46:57.073Z,17.24
2023-07-18T12:51:54.818Z,16.81
2023-07-18T12:54:22.516Z,16.76
2023-07-18T12:56:49.980Z,16.61
2023-07-18T12:59:17.216Z,16.66
2023-07-18T13:01:45.361Z,16.55
2023-07-18T13:04:12.837Z,16.42
2023-07-18T13:06:40.154Z,16.40
2023-07-18T13:09:07.437Z,16.31
2023-07-18T13:11:35.455Z,16.21
2023-07-18T13:14:03.092Z,16.09
2023-07-18T13:16:30.493Z,15.96
2023-07-18T13:18:58.014Z,15.89
2023-07-18T13:21:25.805Z,15.85
2023-07-18T13:23:53.333Z,15.58
2023-07-18T13:26:22.866Z,15.79
2023-07-18T13:28:50.244Z,15.76
2023-07-18T13:31:17.689Z,15.61
2023-07-18T13:33:45.006Z,15.71
2023-07-18T13:36:12.917Z,15.67
2023-07-18T13:38:40.601Z,15.65
2023-07-18T13:41:12.531Z,15.60
2023-07-18T13:43:40.484Z,15.65
2023-07-18T13:46:08.861Z,15.63
2023-07-18T13:48:36.466Z,15.67
2023-07-18T13:51:04.724Z,15.73
2023-07-18T13:53:33.234Z,15.82
2023-07-18T13:56:00.427Z,15.87
2023-07-18T13:58:27.928Z,15.90
2023-07-18T14:00:55.535Z,16.00
2023-07-18T14:03:34.128Z,16.10
2023-07-18T14:06:03.279Z,16.12
2023-07-18T14:08:31.510Z,16.02
2023-07-18T14:10:59.277Z,16.27
2023-07-18T14:13:27.147Z,16.32
2023-07-18T14:15:55.979Z,16.23
2023-07-18T14:18:23.749Z,16.16
2023-07-18T14:20:51.209Z,16.11
2023-07-18T14:23:18.639Z,16.04
2023-07-18T14:25:49.265Z,15.80
2023-07-18T14:28:17.747Z,15.56
2023-07-18T14:30:45.419Z,15.15
2023-07-18T14:33:15.802Z,15.08
2023-07-18T14:35:44.084Z,14.80
2023-07-18T14:38:12.037Z,14.92
2023-07-18T14:40:40.369Z,14.86
2023-07-18T14:43:10.791Z,14.85
2023-07-18T14:45:38.741Z,14.90
2023-07-18T14:48:08.080Z,14.86
2023-07-18T14:50:35.874Z,14.84
2023-07-18T14:53:03.391Z,15.05
2023-07-18T14:55:34.508Z,15.20
2023-07-18T14:58:06.153Z,15.36
2023-07-18T15:00:37.726Z,15.56
2023-07-18T15:03:05.151Z,15.63
2023-07-18T15:05:33.965Z,15.70
2023-07-18T15:08:01.398Z,15.85
2023-07-18T15:10:28.800Z,15.92
2023-07-18T15:12:56.188Z,16.01
2023-07-18T15:15:23.583Z,15.87
2023-07-18T15:17:50.914Z,15.74
2023-07-18T15:20:18.475Z,15.61
2023-07-18T15:22:47.894Z,15.44
2023-07-18T15:25:15.305Z,15.47
2023-07-18T15:27:42.648Z,15.47
2023-07-18T15:30:11.267Z,15.53
2023-07-18T15:32:40.475Z,15.62
2023-07-18T15:35:08.639Z,15.63
2023-07-18T15:37:36.566Z,15.63
2023-07-18T15:40:04.938Z,15.39
2023-07-18T15:42:33.741Z,15.30
2023-07-18T15:45:01.414Z,15.20
2023-07-18T15:47:28.690Z,15.15
2023-07-18T15:49:56.190Z,15.15
2023-07-18T15:52:27.809Z,15.12
2023-07-18T15:54:57.534Z,15.18
2023-07-18T15:57:25.026Z,15.26
2023-07-18T15:59:54.095Z,15.26
2023-07-18T16:02:23.551Z,15.25
2023-07-18T16:04:50.947Z,15.23
2023-07-18T16:07:18.505Z,15.22
2023-07-18T16:09:53.620Z,15.22
2023-07-18T16:12:21.057Z,15.22
2023-07-18T16:14:48.746Z,15.19
2023-07-18T16:17:19.073Z,15.16
2023-07-18T16:19:49.437Z,15.17
2023-07-18T16:22:18.017Z,15.14
2023-07-18T16:24:47.612Z,15.13
2023-07-18T16:27:16.616Z,15.11
2023-07-18T16:29:44.020Z,15.09
2023-07-18T16:32:11.464Z,15.13
2023-07-18T16:34:39.141Z,15.05
2023-07-18T16:37:08.441Z,15.05
2023-07-18T16:39:35.726Z,15.02
2023-07-18T16:42:13.474Z,14.99
2023-07-18T16:44:41.271Z,14.92
2023-07-18T16:47:12.359Z,14.92
2023-07-18T16:49:40.285Z,14.92
2023-07-18T16:52:11.518Z,14.92
2023-07-18T16:54:38.913Z,14.93
2023-07-18T16:57:06.400Z,14.93
2023-07-18T16:59:33.868Z,14.89
2023-07-18T17:02:02.364Z,14.94
2023-07-18T17:04:32.032Z,14.95
2023-07-18T17:06:59.496Z,14.93
2023-07-18T17:09:26.906Z,14.94
2023-07-18T17:11:54.122Z,14.93
2023-07-18T17:14:21.669Z,14.94
2023-07-18T17:16:48.986Z,14.94
2023-07-18T17:19:17.102Z,14.94
2023-07-18T17:21:44.477Z,14.95
2023-07-18T17:24:12.124Z,14.96
2023-07-18T17:26:39.726Z,14.96
2023-07-18T17:29:07.027Z,14.95
2023-07-18T17:31:34.305Z,14.96
2023-07-18T17:34:02.523Z,14.97
2023-07-18T17:36:30.061Z,14.98
2023-07-18T17:38:57.481Z,14.99
2023-07-18T17:41:25.049Z,14.99
2023-07-18T17:43:52.389Z,15.09
2023-07-18T17:46:25.494Z,15.57
2023-07-18T17:48:52.885Z,16.05
2023-07-18T17:51:20.505Z,16.71
2023-07-18T17:53:48.261Z,17.15
2023-07-18T17:56:15.841Z,17.36
2023-07-18T17:58:43.956Z,17.38
2023-07-18T18:01:11.164Z,16.87
2023-07-18T18:03:42.554Z,16.37
2023-07-18T18:06:10.485Z,15.95
2023-07-18T18:08:40.339Z,15.68
2023-07-18T18:11:08.639Z,15.47
2023-07-18T18:13:41.469Z,15.30
2023-07-18T18:16:09.707Z,15.19
2023-07-18T18:18:37.220Z,15.08
2023-07-18T18:21:05.122Z,14.79
2023-07-18T18:26:03.978Z,14.80
2023-07-18T18:28:31.449Z,14.78
2023-07-18T18:30:58.903Z,14.71
2023-07-18T18:33:28.821Z,14.66
2023-07-18T18:35:57.428Z,14.55
2023-07-18T18:38:24.789Z,14.43
2023-07-18T18:40:53.273Z,14.35
2023-07-18T18:43:21.814Z,14.30
2023-07-18T18:45:49.214Z,14.23
2023-07-18T18:48:17.244Z,14.15
2023-07-18T18:50:46.612Z,14.10
2023-07-18T18:53:14.064Z,14.03
2023-07-18T18:55:41.651Z,13.99
2023-07-18T18:58:10.689Z,13.96
2023-07-18T19:00:38.968Z,13.94
2023-07-18T19:03:06.402Z,13.88
2023-07-18T19:05:34.468Z,13.82
2023-07-18T19:08:01.704Z,13.77
2023-07-18T19:10:29.476Z,13.71
2023-07-18T19:12:56.898Z,13.66
2023-07-18T19:15:24.370Z,13.65
2023-07-18T19:17:52.471Z,13.62
2023-07-18T19:20:20.769Z,13.56
